Terminal Aerodrome Forecast
Issued by NWS Wilmington, NC

Home | Current Version | Previous Version | Text Only | Print | Product List | Glossary On
Versions: 1 2 3 4 5 6 7 8 9 10 11 12 13 14 15 16 17 18 19 20
000
FTUS42 KILM 031145 CCA
TAFILM
TAF COR
KILM 031145Z 0312/0412 VRB03KT 5SM BR SKC
     FM031300 23006KT P6SM SKC
     FM031800 17011KT P6SM SCT060
     FM040100 20005KT P6SM FEW060
     FM040900 23001KT 6SM BR SKC=

USA.gov is the U.S. government's official web portal to all federal, state and local government web resources and services.